首页
METAR-TAF:

METAR-TAF

机场 :

仙台機場

仙台, 日本

纬度: 38-08N, 经度: 140-55E, 海拔: 1米

当前天气观测

该预报发布于9小时和12分钟前的12:00 UTC
风速11节,风向南转南东
温度 22°C
湿度 88%
气压 1006 hPa
能见度10公里或以上
少量云层高于600英尺
散云层高于1000英尺
多云

METAR: RJSS 151200Z 16011KT 9999 FEW006 SCT010 BKN/// 22/20 Q1006

时间: 06:12 (21:12 UTC)

预报

该预报发布于4小时和6分钟前的17:06 UTC
预报有效从15日的 18点(UTC)到 17日的 00点(UTC)
风速6节,风向东转东南
能见度10公里或以上
少量云层高于1000英尺
短暂存在
从 15日的 18点(UTC)到 15日的 21点(UTC)
少量云层高于300英尺
多云层高于500英尺
成为
从 16日的 18点(UTC)到 16日的 21点(UTC)
风速4节,风向西转西南

TAF: RJSS 151706Z 1518/1700 12006KT 9999 FEW010 TEMPO 1518/1521 FEW003 BKN005 BECMG 1618/1621 24004KT

超过4000个机场的气象观测和天气预报(METAR&TAF报告)。

可查询的气象台以黄色和红色小点在地图上表示。

将鼠标移到小点上方,可查看气象台名称。

然后点击查看天气观测和预报。

如需切换地图:点击带黑十字的绿色按钮放大地图;点击带横线的绿色按钮缩小地图;或者点击绿色箭头查看邻近地区的地图。


METAR-TAF: